sensor_id;sensor_type;location;lat;lon;timestamp;temperature;humidity
9802;DHT22;4940;50.900;4.672;2022-10-16T00:01:35;13.80;99.90
9802;DHT22;4940;50.900;4.672;2022-10-16T00:04:03;13.80;99.90
9802;DHT22;4940;50.900;4.672;2022-10-16T00:08:58;13.70;99.90
9802;DHT22;4940;50.900;4.672;2022-10-16T00:11:26;13.70;99.90
9802;DHT22;4940;50.900;4.672;2022-10-16T00:13:56;13.60;99.90
9802;DHT22;4940;50.900;4.672;2022-10-16T00:18:53;13.70;99.90
9802;DHT22;4940;50.900;4.672;2022-10-16T00:21:22;13.70;99.90
9802;DHT22;4940;50.900;4.672;2022-10-16T00:23:51;13.60;99.90
9802;DHT22;4940;50.900;4.672;2022-10-16T00:26:19;13.60;99.90
9802;DHT22;4940;50.900;4.672;2022-10-16T00:33:41;13.60;99.90
9802;DHT22;4940;50.900;4.672;2022-10-16T00:36:13;13.50;99.90
9802;DHT22;4940;50.900;4.672;2022-10-16T00:38:41;13.60;99.90
9802;DHT22;4940;50.900;4.672;2022-10-16T00:41:10;13.50;99.90
9802;DHT22;4940;50.900;4.672;2022-10-16T00:43:40;13.50;99.90
9802;DHT22;4940;50.900;4.672;2022-10-16T00:46:14;13.50;99.90
9802;DHT22;4940;50.900;4.672;2022-10-16T00:48:43;13.50;99.90
9802;DHT22;4940;50.900;4.672;2022-10-16T00:51:14;13.50;99.90
9802;DHT22;4940;50.900;4.672;2022-10-16T00:53:41;14.30;99.90
9802;DHT22;4940;50.900;4.672;2022-10-16T01:03:32;13.50;99.90
9802;DHT22;4940;50.900;4.672;2022-10-16T01:06:09;13.40;99.90
9802;DHT22;4940;50.900;4.672;2022-10-16T01:08:49;13.50;99.90
9802;DHT22;4940;50.900;4.672;2022-10-16T01:11:24;13.40;99.90
9802;DHT22;4940;50.900;4.672;2022-10-16T01:13:57;13.30;99.90
9802;DHT22;4940;50.900;4.672;2022-10-16T01:16:31;13.20;99.90
9802;DHT22;4940;50.900;4.672;2022-10-16T01:19:08;13.40;99.90
9802;DHT22;4940;50.900;4.672;2022-10-16T01:21:39;13.40;99.90
9802;DHT22;4940;50.900;4.672;2022-10-16T01:24:14;13.30;99.90
9802;DHT22;4940;50.900;4.672;2022-10-16T01:27:10;13.40;99.90
9802;DHT22;4940;50.900;4.672;2022-10-16T01:29:42;13.30;99.90
9802;DHT22;4940;50.900;4.672;2022-10-16T01:32:16;13.10;99.90
9802;DHT22;4940;50.900;4.672;2022-10-16T01:34:49;13.40;99.90
9802;DHT22;4940;50.900;4.672;2022-10-16T01:37:25;13.40;99.90
9802;DHT22;4940;50.900;4.672;2022-10-16T01:39:58;13.40;99.90
9802;DHT22;4940;50.900;4.672;2022-10-16T01:42:29;13.40;99.90
9802;DHT22;4940;50.900;4.672;2022-10-16T01:44:59;13.40;99.90
9802;DHT22;4940;50.900;4.672;2022-10-16T01:47:27;13.40;99.90
9802;DHT22;4940;50.900;4.672;2022-10-16T01:49:55;13.40;99.90
9802;DHT22;4940;50.900;4.672;2022-10-16T01:52:26;13.40;99.90
9802;DHT22;4940;50.900;4.672;2022-10-16T01:54:56;13.30;99.90
9802;DHT22;4940;50.900;4.672;2022-10-16T01:57:27;13.40;99.90
9802;DHT22;4940;50.900;4.672;2022-10-16T01:59:58;13.40;99.90
9802;DHT22;4940;50.900;4.672;2022-10-16T02:02:29;13.30;99.90
9802;DHT22;4940;50.900;4.672;2022-10-16T02:05:03;13.30;99.90
9802;DHT22;4940;50.900;4.672;2022-10-16T02:09:59;13.30;99.90
9802;DHT22;4940;50.900;4.672;2022-10-16T02:12:31;13.30;99.90
9802;DHT22;4940;50.900;4.672;2022-10-16T02:19:55;13.30;99.90
9802;DHT22;4940;50.900;4.672;2022-10-16T02:22:27;13.30;99.90
9802;DHT22;4940;50.900;4.672;2022-10-16T02:24:58;13.30;99.90
9802;DHT22;4940;50.900;4.672;2022-10-16T02:27:32;13.30;99.90
9802;DHT22;4940;50.900;4.672;2022-10-16T02:30:04;13.20;99.90
9802;DHT22;4940;50.900;4.672;2022-10-16T02:32:34;13.30;99.90
9802;DHT22;4940;50.900;4.672;2022-10-16T02:35:04;13.30;99.90
9802;DHT22;4940;50.900;4.672;2022-10-16T02:40:00;13.20;99.90
9802;DHT22;4940;50.900;4.672;2022-10-16T02:42:33;13.20;99.90
9802;DHT22;4940;50.900;4.672;2022-10-16T02:59:46;13.20;99.90
9802;DHT22;4940;50.900;4.672;2022-10-16T03:07:08;13.10;99.90
9802;DHT22;4940;50.900;4.672;2022-10-16T03:12:03;13.10;99.90
9802;DHT22;4940;50.900;4.672;2022-10-16T03:16:59;13.10;99.90
9802;DHT22;4940;50.900;4.672;2022-10-16T03:26:48;13.10;99.90
9802;DHT22;4940;50.900;4.672;2022-10-16T03:29:15;13.10;99.90
9802;DHT22;4940;50.900;4.672;2022-10-16T03:34:11;13.20;99.90
9802;DHT22;4940;50.900;4.672;2022-10-16T03:36:38;13.00;99.90
9802;DHT22;4940;50.900;4.672;2022-10-16T03:51:23;13.00;99.90
9802;DHT22;4940;50.900;4.672;2022-10-16T04:08:36;13.00;99.90
9802;DHT22;4940;50.900;4.672;2022-10-16T04:11:05;13.10;99.90
9802;DHT22;4940;50.900;4.672;2022-10-16T04:20:54;13.10;99.90
9802;DHT22;4940;50.900;4.672;2022-10-16T04:25:51;13.10;99.90
9802;DHT22;4940;50.900;4.672;2022-10-16T04:30:45;13.10;99.90
9802;DHT22;4940;50.900;4.672;2022-10-16T04:40:34;13.10;99.90
9802;DHT22;4940;50.900;4.672;2022-10-16T04:43:04;13.10;99.90
9802;DHT22;4940;50.900;4.672;2022-10-16T04:45:31;13.10;99.90
9802;DHT22;4940;50.900;4.672;2022-10-16T04:47:59;13.10;99.90
9802;DHT22;4940;50.900;4.672;2022-10-16T05:02:44;13.10;99.90
9802;DHT22;4940;50.900;4.672;2022-10-16T05:15:02;13.00;99.90
9802;DHT22;4940;50.900;4.672;2022-10-16T05:17:31;13.00;99.90
9802;DHT22;4940;50.900;4.672;2022-10-16T05:29:48;13.00;99.90
9802;DHT22;4940;50.900;4.672;2022-10-16T05:32:17;14.30;99.90
9802;DHT22;4940;50.900;4.672;2022-10-16T05:34:45;13.00;99.90
9802;DHT22;4940;50.900;4.672;2022-10-16T05:51:58;12.80;99.90
9802;DHT22;4940;50.900;4.672;2022-10-16T06:06:42;12.70;99.90
9802;DHT22;4940;50.900;4.672;2022-10-16T06:09:10;12.70;99.90
9802;DHT22;4940;50.900;4.672;2022-10-16T06:16:34;12.70;99.90
9802;DHT22;4940;50.900;4.672;2022-10-16T06:21:32;12.70;99.90
9802;DHT22;4940;50.900;4.672;2022-10-16T06:23:59;12.70;99.90
9802;DHT22;4940;50.900;4.672;2022-10-16T06:26:29;12.70;99.90
9802;DHT22;4940;50.900;4.672;2022-10-16T06:28:57;12.70;99.90
9802;DHT22;4940;50.900;4.672;2022-10-16T06:31:25;13.00;99.90
9802;DHT22;4940;50.900;4.672;2022-10-16T06:33:54;12.70;99.90
9802;DHT22;4940;50.900;4.672;2022-10-16T06:36:22;12.90;99.90
9802;DHT22;4940;50.900;4.672;2022-10-16T06:41:18;12.70;99.90
9802;DHT22;4940;50.900;4.672;2022-10-16T06:43:47;12.70;99.90
9802;DHT22;4940;50.900;4.672;2022-10-16T06:46:16;12.70;99.90
9802;DHT22;4940;50.900;4.672;2022-10-16T06:51:12;12.80;99.90
9802;DHT22;4940;50.900;4.672;2022-10-16T06:53:41;12.80;99.90
9802;DHT22;4940;50.900;4.672;2022-10-16T06:56:10;12.80;99.90
9802;DHT22;4940;50.900;4.672;2022-10-16T07:01:06;13.00;99.90
9802;DHT22;4940;50.900;4.672;2022-10-16T07:03:35;13.00;99.90
9802;DHT22;4940;50.900;4.672;2022-10-16T07:06:03;13.10;99.90
9802;DHT22;4940;50.900;4.672;2022-10-16T07:08:31;13.10;99.90
9802;DHT22;4940;50.900;4.672;2022-10-16T07:11:00;13.30;99.90
9802;DHT22;4940;50.900;4.672;2022-10-16T07:18:24;13.60;99.90
9802;DHT22;4940;50.900;4.672;2022-10-16T07:25:53;13.80;99.90
9802;DHT22;4940;50.900;4.672;2022-10-16T07:35:52;14.30;99.90
9802;DHT22;4940;50.900;4.672;2022-10-16T07:38:20;14.20;99.90
9802;DHT22;4940;50.900;4.672;2022-10-16T07:45:48;14.90;99.90
9802;DHT22;4940;50.900;4.672;2022-10-16T07:48:16;15.30;99.90
9802;DHT22;4940;50.900;4.672;2022-10-16T07:50:44;15.80;99.90
9802;DHT22;4940;50.900;4.672;2022-10-16T07:53:13;16.20;99.90
9802;DHT22;4940;50.900;4.672;2022-10-16T07:55:41;16.60;99.90
9802;DHT22;4940;50.900;4.672;2022-10-16T08:00:36;17.50;99.90
9802;DHT22;4940;50.900;4.672;2022-10-16T08:05:33;18.50;99.90
9802;DHT22;4940;50.900;4.672;2022-10-16T08:10:33;19.40;99.90
9802;DHT22;4940;50.900;4.672;2022-10-16T08:13:00;19.90;99.90
9802;DHT22;4940;50.900;4.672;2022-10-16T08:15:27;22.20;99.90
9802;DHT22;4940;50.900;4.672;2022-10-16T08:17:58;16.90;99.90
9802;DHT22;4940;50.900;4.672;2022-10-16T08:20:26;21.10;99.90
9802;DHT22;4940;50.900;4.672;2022-10-16T08:22:54;21.30;99.90
9802;DHT22;4940;50.900;4.672;2022-10-16T08:25:21;21.90;99.90
9802;DHT22;4940;50.900;4.672;2022-10-16T08:27:50;22.30;99.90
9802;DHT22;4940;50.900;4.672;2022-10-16T08:30:18;18.80;99.90
9802;DHT22;4940;50.900;4.672;2022-10-16T08:32:45;22.90;99.90
9802;DHT22;4940;50.900;4.672;2022-10-16T08:35:13;23.20;99.90
9802;DHT22;4940;50.900;4.672;2022-10-16T08:37:41;23.60;99.90
9802;DHT22;4940;50.900;4.672;2022-10-16T08:40:17;23.70;99.90
9802;DHT22;4940;50.900;4.672;2022-10-16T08:43:04;23.90;99.90
9802;DHT22;4940;50.900;4.672;2022-10-16T08:45:44;24.10;99.90
9802;DHT22;4940;50.900;4.672;2022-10-16T08:48:20;24.30;99.90
9802;DHT22;4940;50.900;4.672;2022-10-16T08:50:51;24.30;99.90
9802;DHT22;4940;50.900;4.672;2022-10-16T08:53:22;24.80;99.90
9802;DHT22;4940;50.900;4.672;2022-10-16T08:55:52;25.20;99.90
9802;DHT22;4940;50.900;4.672;2022-10-16T08:58:22;25.20;99.90
9802;DHT22;4940;50.900;4.672;2022-10-16T09:00:53;25.40;99.90
9802;DHT22;4940;50.900;4.672;2022-10-16T09:03:46;25.60;99.90
9802;DHT22;4940;50.900;4.672;2022-10-16T09:06:29;25.80;99.90
9802;DHT22;4940;50.900;4.672;2022-10-16T09:09:15;26.00;99.90
9802;DHT22;4940;50.900;4.672;2022-10-16T09:11:50;26.20;99.90
9802;DHT22;4940;50.900;4.672;2022-10-16T09:14:37;27.90;99.90
9802;DHT22;4940;50.900;4.672;2022-10-16T09:17:22;26.40;99.90
9802;DHT22;4940;50.900;4.672;2022-10-16T09:19:54;26.60;99.90
9802;DHT22;4940;50.900;4.672;2022-10-16T09:22:27;26.60;99.90
9802;DHT22;4940;50.900;4.672;2022-10-16T09:24:55;26.90;99.90
9802;DHT22;4940;50.900;4.672;2022-10-16T09:27:26;27.00;99.90
9802;DHT22;4940;50.900;4.672;2022-10-16T09:29:55;27.10;99.90
9802;DHT22;4940;50.900;4.672;2022-10-16T09:32:22;27.30;99.90
9802;DHT22;4940;50.900;4.672;2022-10-16T09:34:52;27.70;99.90
9802;DHT22;4940;50.900;4.672;2022-10-16T09:37:22;24.60;99.90
9802;DHT22;4940;50.900;4.672;2022-10-16T09:39:51;27.50;99.90
9802;DHT22;4940;50.900;4.672;2022-10-16T09:42:20;27.40;99.90
9802;DHT22;4940;50.900;4.672;2022-10-16T09:44:49;27.40;99.90
9802;DHT22;4940;50.900;4.672;2022-10-16T09:47:21;27.20;99.90
9802;DHT22;4940;50.900;4.672;2022-10-16T09:49:53;27.00;99.90
9802;DHT22;4940;50.900;4.672;2022-10-16T09:52:21;25.90;99.90
9802;DHT22;4940;50.900;4.672;2022-10-16T09:54:52;26.00;99.90
9802;DHT22;4940;50.900;4.672;2022-10-16T09:57:21;25.60;99.90
9802;DHT22;4940;50.900;4.672;2022-10-16T09:59:49;25.20;99.90
9802;DHT22;4940;50.900;4.672;2022-10-16T10:02:20;24.80;99.90
9802;DHT22;4940;50.900;4.672;2022-10-16T10:04:51;24.50;99.90
9802;DHT22;4940;50.900;4.672;2022-10-16T10:07:24;24.20;99.90
9802;DHT22;4940;50.900;4.672;2022-10-16T10:09:53;24.00;99.90
9802;DHT22;4940;50.900;4.672;2022-10-16T10:12:23;23.70;99.90
9802;DHT22;4940;50.900;4.672;2022-10-16T10:14:52;23.50;99.90
9802;DHT22;4940;50.900;4.672;2022-10-16T10:17:22;23.40;99.90
9802;DHT22;4940;50.900;4.672;2022-10-16T10:19:51;23.10;99.90
9802;DHT22;4940;50.900;4.672;2022-10-16T10:22:25;23.40;99.90
9802;DHT22;4940;50.900;4.672;2022-10-16T10:24:57;23.10;99.90
9802;DHT22;4940;50.900;4.672;2022-10-16T10:27:32;23.10;99.90
9802;DHT22;4940;50.900;4.672;2022-10-16T10:30:06;23.10;99.90
9802;DHT22;4940;50.900;4.672;2022-10-16T10:32:41;23.20;99.90
9802;DHT22;4940;50.900;4.672;2022-10-16T10:35:15;23.20;99.90
9802;DHT22;4940;50.900;4.672;2022-10-16T10:38:00;23.20;99.90
9802;DHT22;4940;50.900;4.672;2022-10-16T10:40:39;23.20;99.90
9802;DHT22;4940;50.900;4.672;2022-10-16T10:43:18;23.20;99.90
9802;DHT22;4940;50.900;4.672;2022-10-16T10:45:53;23.20;99.90
9802;DHT22;4940;50.900;4.672;2022-10-16T10:51:20;23.20;99.90
9802;DHT22;4940;50.900;4.672;2022-10-16T10:53:58;23.20;99.90
9802;DHT22;4940;50.900;4.672;2022-10-16T10:56:41;23.20;99.90
9802;DHT22;4940;50.900;4.672;2022-10-16T10:59:25;23.20;99.90
9802;DHT22;4940;50.900;4.672;2022-10-16T11:02:00;23.30;99.90
9802;DHT22;4940;50.900;4.672;2022-10-16T11:04:49;23.30;99.90
9802;DHT22;4940;50.900;4.672;2022-10-16T11:07:23;23.30;99.90
9802;DHT22;4940;50.900;4.672;2022-10-16T11:09:53;23.30;99.90
9802;DHT22;4940;50.900;4.672;2022-10-16T11:12:27;23.20;99.90
9802;DHT22;4940;50.900;4.672;2022-10-16T11:14:58;23.10;99.90
9802;DHT22;4940;50.900;4.672;2022-10-16T11:17:31;23.10;99.90
9802;DHT22;4940;50.900;4.672;2022-10-16T11:20:11;23.00;99.90
9802;DHT22;4940;50.900;4.672;2022-10-16T11:22:41;23.00;99.90
9802;DHT22;4940;50.900;4.672;2022-10-16T11:25:14;23.00;99.90
9802;DHT22;4940;50.900;4.672;2022-10-16T11:27:49;23.00;99.90
9802;DHT22;4940;50.900;4.672;2022-10-16T11:30:20;23.00;99.90
9802;DHT22;4940;50.900;4.672;2022-10-16T11:33:03;22.90;99.90
9802;DHT22;4940;50.900;4.672;2022-10-16T11:35:43;22.90;99.90
9802;DHT22;4940;50.900;4.672;2022-10-16T11:38:27;22.90;99.90
9802;DHT22;4940;50.900;4.672;2022-10-16T11:41:00;22.80;99.90
9802;DHT22;4940;50.900;4.672;2022-10-16T11:43:34;22.60;99.90
9802;DHT22;4940;50.900;4.672;2022-10-16T11:46:08;22.70;99.90
9802;DHT22;4940;50.900;4.672;2022-10-16T11:48:39;22.70;99.90
9802;DHT22;4940;50.900;4.672;2022-10-16T11:51:16;22.60;99.90
9802;DHT22;4940;50.900;4.672;2022-10-16T11:53:49;22.60;99.90
9802;DHT22;4940;50.900;4.672;2022-10-16T11:56:20;22.60;99.90
9802;DHT22;4940;50.900;4.672;2022-10-16T11:58:54;22.50;99.90
9802;DHT22;4940;50.900;4.672;2022-10-16T12:01:28;22.40;99.90
9802;DHT22;4940;50.900;4.672;2022-10-16T12:04:05;22.30;99.90
9802;DHT22;4940;50.900;4.672;2022-10-16T12:06:38;22.20;99.90
9802;DHT22;4940;50.900;4.672;2022-10-16T12:09:15;22.10;99.90
9802;DHT22;4940;50.900;4.672;2022-10-16T12:11:42;22.20;99.90
9802;DHT22;4940;50.900;4.672;2022-10-16T12:17:27;22.10;99.90
9802;DHT22;4940;50.900;4.672;2022-10-16T12:20:12;22.20;99.90
9802;DHT22;4940;50.900;4.672;2022-10-16T12:22:49;22.20;99.90
9802;DHT22;4940;50.900;4.672;2022-10-16T12:25:24;22.30;99.90
9802;DHT22;4940;50.900;4.672;2022-10-16T12:27:59;22.30;99.90
9802;DHT22;4940;50.900;4.672;2022-10-16T12:30:28;22.30;99.90
9802;DHT22;4940;50.900;4.672;2022-10-16T12:32:57;22.30;99.90
9802;DHT22;4940;50.900;4.672;2022-10-16T12:35:27;22.40;99.90
9802;DHT22;4940;50.900;4.672;2022-10-16T12:38:07;22.40;99.90
9802;DHT22;4940;50.900;4.672;2022-10-16T12:40:37;22.30;99.90
9802;DHT22;4940;50.900;4.672;2022-10-16T12:43:12;22.40;99.90
9802;DHT22;4940;50.900;4.672;2022-10-16T12:45:40;22.30;99.90
9802;DHT22;4940;50.900;4.672;2022-10-16T12:48:20;22.40;99.90
9802;DHT22;4940;50.900;4.672;2022-10-16T12:50:48;22.40;99.90
9802;DHT22;4940;50.900;4.672;2022-10-16T12:53:21;22.40;99.90
9802;DHT22;4940;50.900;4.672;2022-10-16T12:55:57;22.40;99.90
9802;DHT22;4940;50.900;4.672;2022-10-16T12:58:41;22.70;99.90
9802;DHT22;4940;50.900;4.672;2022-10-16T13:01:22;22.40;99.90
9802;DHT22;4940;50.900;4.672;2022-10-16T13:04:10;22.40;99.90
9802;DHT22;4940;50.900;4.672;2022-10-16T13:06:48;22.40;99.90
9802;DHT22;4940;50.900;4.672;2022-10-16T13:12:30;22.40;99.90
9802;DHT22;4940;50.900;4.672;2022-10-16T13:15:22;22.40;99.90
9802;DHT22;4940;50.900;4.672;2022-10-16T13:17:59;22.40;99.90
9802;DHT22;4940;50.900;4.672;2022-10-16T13:20:34;22.40;99.90
9802;DHT22;4940;50.900;4.672;2022-10-16T13:23:09;22.40;99.90
9802;DHT22;4940;50.900;4.672;2022-10-16T13:25:50;22.40;99.90
9802;DHT22;4940;50.900;4.672;2022-10-16T13:28:26;22.50;99.90
9802;DHT22;4940;50.900;4.672;2022-10-16T13:30:56;22.40;99.90
9802;DHT22;4940;50.900;4.672;2022-10-16T13:33:31;22.60;99.90
9802;DHT22;4940;50.900;4.672;2022-10-16T13:35:59;22.40;99.90
9802;DHT22;4940;50.900;4.672;2022-10-16T13:38:27;22.50;99.90
9802;DHT22;4940;50.900;4.672;2022-10-16T13:40:57;22.40;99.90
9802;DHT22;4940;50.900;4.672;2022-10-16T13:43:28;22.40;99.90
9802;DHT22;4940;50.900;4.672;2022-10-16T13:46:00;22.40;99.90
9802;DHT22;4940;50.900;4.672;2022-10-16T13:51:00;22.50;99.90
9802;DHT22;4940;50.900;4.672;2022-10-16T13:53:27;22.40;99.90
9802;DHT22;4940;50.900;4.672;2022-10-16T13:55:58;22.40;99.90
9802;DHT22;4940;50.900;4.672;2022-10-16T13:58:26;22.30;99.90
9802;DHT22;4940;50.900;4.672;2022-10-16T14:00:55;22.20;99.90
9802;DHT22;4940;50.900;4.672;2022-10-16T14:03:23;22.10;99.90
9802;DHT22;4940;50.900;4.672;2022-10-16T14:05:52;22.10;99.90
9802;DHT22;4940;50.900;4.672;2022-10-16T14:08:20;22.00;99.90
9802;DHT22;4940;50.900;4.672;2022-10-16T14:10:49;21.90;99.90
9802;DHT22;4940;50.900;4.672;2022-10-16T14:13:28;21.80;99.90
9802;DHT22;4940;50.900;4.672;2022-10-16T14:15:56;25.40;99.90
9802;DHT22;4940;50.900;4.672;2022-10-16T14:18:27;23.60;99.90
9802;DHT22;4940;50.900;4.672;2022-10-16T14:21:03;21.90;99.90
9802;DHT22;4940;50.900;4.672;2022-10-16T14:23:31;21.90;99.90
9802;DHT22;4940;50.900;4.672;2022-10-16T14:26:17;21.90;99.90
9802;DHT22;4940;50.900;4.672;2022-10-16T14:28:47;21.80;99.90
9802;DHT22;4940;50.900;4.672;2022-10-16T14:31:26;21.70;99.90
9802;DHT22;4940;50.900;4.672;2022-10-16T14:36:22;21.80;99.90
9802;DHT22;4940;50.900;4.672;2022-10-16T14:38:59;21.70;99.90
9802;DHT22;4940;50.900;4.672;2022-10-16T14:41:28;21.70;99.90
9802;DHT22;4940;50.900;4.672;2022-10-16T14:44:01;21.80;99.90
9802;DHT22;4940;50.900;4.672;2022-10-16T14:46:32;21.70;99.90
9802;DHT22;4940;50.900;4.672;2022-10-16T14:49:03;21.00;99.90
9802;DHT22;4940;50.900;4.672;2022-10-16T14:53:59;21.70;99.90
9802;DHT22;4940;50.900;4.672;2022-10-16T14:56:30;21.60;99.90
9802;DHT22;4940;50.900;4.672;2022-10-16T14:58:59;21.40;99.90
9802;DHT22;4940;50.900;4.672;2022-10-16T15:01:26;21.50;99.90
9802;DHT22;4940;50.900;4.672;2022-10-16T15:08:49;21.30;99.90
9802;DHT22;4940;50.900;4.672;2022-10-16T15:11:17;21.30;99.90
9802;DHT22;4940;50.900;4.672;2022-10-16T15:13:45;21.30;99.90
9802;DHT22;4940;50.900;4.672;2022-10-16T15:16:15;21.30;99.90
9802;DHT22;4940;50.900;4.672;2022-10-16T15:18:43;21.20;99.90
9802;DHT22;4940;50.900;4.672;2022-10-16T15:21:15;21.20;99.90
9802;DHT22;4940;50.900;4.672;2022-10-16T15:26:12;21.20;99.90
9802;DHT22;4940;50.900;4.672;2022-10-16T15:28:41;21.20;99.90
9802;DHT22;4940;50.900;4.672;2022-10-16T15:33:37;21.10;99.90
9802;DHT22;4940;50.900;4.672;2022-10-16T15:36:05;21.10;99.90
9802;DHT22;4940;50.900;4.672;2022-10-16T15:38:32;21.10;99.90
9802;DHT22;4940;50.900;4.672;2022-10-16T15:43:27;21.00;99.90
9802;DHT22;4940;50.900;4.672;2022-10-16T15:46:00;21.00;99.90
9802;DHT22;4940;50.900;4.672;2022-10-16T15:48:28;20.90;99.90
9802;DHT22;4940;50.900;4.672;2022-10-16T15:50:57;20.90;99.90
9802;DHT22;4940;50.900;4.672;2022-10-16T15:58:19;20.70;99.90
9802;DHT22;4940;50.900;4.672;2022-10-16T16:00:54;20.70;99.90
9802;DHT22;4940;50.900;4.672;2022-10-16T16:03:22;20.60;99.90
9802;DHT22;4940;50.900;4.672;2022-10-16T16:05:49;20.50;99.90
9802;DHT22;4940;50.900;4.672;2022-10-16T16:08:18;20.50;99.90
9802;DHT22;4940;50.900;4.672;2022-10-16T16:10:46;20.50;99.90
9802;DHT22;4940;50.900;4.672;2022-10-16T16:13:23;20.40;99.90
9802;DHT22;4940;50.900;4.672;2022-10-16T16:15:50;20.40;99.90
9802;DHT22;4940;50.900;4.672;2022-10-16T16:18:17;22.80;99.90
9802;DHT22;4940;50.900;4.672;2022-10-16T16:23:12;20.30;99.90
9802;DHT22;4940;50.900;4.672;2022-10-16T16:25:41;20.20;99.90
9802;DHT22;4940;50.900;4.672;2022-10-16T16:28:08;20.20;99.90
9802;DHT22;4940;50.900;4.672;2022-10-16T16:30:36;20.10;99.90
9802;DHT22;4940;50.900;4.672;2022-10-16T16:33:03;20.00;99.90
9802;DHT22;4940;50.900;4.672;2022-10-16T16:42:57;19.90;99.90
9802;DHT22;4940;50.900;4.672;2022-10-16T16:45:24;19.90;99.90
9802;DHT22;4940;50.900;4.672;2022-10-16T16:47:52;19.70;99.90
9802;DHT22;4940;50.900;4.672;2022-10-16T16:50:19;19.90;99.90
9802;DHT22;4940;50.900;4.672;2022-10-16T16:52:46;19.70;99.90
9802;DHT22;4940;50.900;4.672;2022-10-16T16:57:41;19.50;99.90
9802;DHT22;4940;50.900;4.672;2022-10-16T17:00:11;19.50;99.90
9802;DHT22;4940;50.900;4.672;2022-10-16T17:02:38;19.50;99.90
9802;DHT22;4940;50.900;4.672;2022-10-16T17:05:09;19.50;99.90
9802;DHT22;4940;50.900;4.672;2022-10-16T17:07:36;19.40;99.90
9802;DHT22;4940;50.900;4.672;2022-10-16T17:10:07;19.40;99.90
9802;DHT22;4940;50.900;4.672;2022-10-16T17:17:30;19.30;99.90
9802;DHT22;4940;50.900;4.672;2022-10-16T17:22:25;17.80;99.90
9802;DHT22;4940;50.900;4.672;2022-10-16T17:27:19;19.00;99.90
9802;DHT22;4940;50.900;4.672;2022-10-16T17:29:50;19.00;99.90
9802;DHT22;4940;50.900;4.672;2022-10-16T17:34:47;18.60;99.90
9802;DHT22;4940;50.900;4.672;2022-10-16T17:42:09;18.40;99.90
9802;DHT22;4940;50.900;4.672;2022-10-16T17:44:36;18.30;99.90
9802;DHT22;4940;50.900;4.672;2022-10-16T17:47:04;18.30;99.90
9802;DHT22;4940;50.900;4.672;2022-10-16T17:49:31;18.20;99.90
9802;DHT22;4940;50.900;4.672;2022-10-16T17:52:00;18.20;99.90
9802;DHT22;4940;50.900;4.672;2022-10-16T18:01:50;17.90;99.90
9802;DHT22;4940;50.900;4.672;2022-10-16T18:06:45;17.90;99.90
9802;DHT22;4940;50.900;4.672;2022-10-16T18:09:15;17.80;99.90
9802;DHT22;4940;50.900;4.672;2022-10-16T18:11:44;17.80;99.90
9802;DHT22;4940;50.900;4.672;2022-10-16T18:14:13;17.80;99.90
9802;DHT22;4940;50.900;4.672;2022-10-16T18:16:42;17.70;99.90
9802;DHT22;4940;50.900;4.672;2022-10-16T18:19:09;17.90;99.90
9802;DHT22;4940;50.900;4.672;2022-10-16T18:21:36;17.60;99.90
9802;DHT22;4940;50.900;4.672;2022-10-16T18:26:32;17.70;99.90
9802;DHT22;4940;50.900;4.672;2022-10-16T18:29:00;17.60;99.90
9802;DHT22;4940;50.900;4.672;2022-10-16T18:31:28;17.60;99.90
9802;DHT22;4940;50.900;4.672;2022-10-16T18:33:55;17.70;99.90
9802;DHT22;4940;50.900;4.672;2022-10-16T18:36:25;17.60;99.90
9802;DHT22;4940;50.900;4.672;2022-10-16T18:38:54;17.50;99.90
9802;DHT22;4940;50.900;4.672;2022-10-16T18:43:50;17.60;99.90
9802;DHT22;4940;50.900;4.672;2022-10-16T18:46:19;17.40;99.90
9802;DHT22;4940;50.900;4.672;2022-10-16T18:48:47;17.30;99.90
9802;DHT22;4940;50.900;4.672;2022-10-16T18:51:18;17.30;99.90
9802;DHT22;4940;50.900;4.672;2022-10-16T18:53:47;17.30;99.90
9802;DHT22;4940;50.900;4.672;2022-10-16T18:56:15;17.30;99.90
9802;DHT22;4940;50.900;4.672;2022-10-16T18:58:43;17.30;99.90
9802;DHT22;4940;50.900;4.672;2022-10-16T19:01:16;17.30;99.90
9802;DHT22;4940;50.900;4.672;2022-10-16T19:03:45;18.40;99.90
9802;DHT22;4940;50.900;4.672;2022-10-16T19:08:42;17.30;99.90
9802;DHT22;4940;50.900;4.672;2022-10-16T19:11:10;17.20;99.90
9802;DHT22;4940;50.900;4.672;2022-10-16T19:16:09;17.20;99.90
9802;DHT22;4940;50.900;4.672;2022-10-16T19:18:39;17.20;99.90
9802;DHT22;4940;50.900;4.672;2022-10-16T19:21:08;17.10;99.90
9802;DHT22;4940;50.900;4.672;2022-10-16T19:26:03;17.20;99.90
9802;DHT22;4940;50.900;4.672;2022-10-16T19:31:00;17.20;99.90
9802;DHT22;4940;50.900;4.672;2022-10-16T19:33:28;17.10;99.90
9802;DHT22;4940;50.900;4.672;2022-10-16T19:36:06;17.20;99.90
9802;DHT22;4940;50.900;4.672;2022-10-16T19:41:04;17.10;99.90
9802;DHT22;4940;50.900;4.672;2022-10-16T19:46:02;17.10;99.90
9802;DHT22;4940;50.900;4.672;2022-10-16T19:51:02;16.90;99.90
9802;DHT22;4940;50.900;4.672;2022-10-16T19:53:29;17.10;99.90
9802;DHT22;4940;50.900;4.672;2022-10-16T19:55:57;17.00;99.90
9802;DHT22;4940;50.900;4.672;2022-10-16T19:58:24;17.00;99.90
9802;DHT22;4940;50.900;4.672;2022-10-16T20:03:19;16.90;99.90
9802;DHT22;4940;50.900;4.672;2022-10-16T20:05:51;16.90;99.90
9802;DHT22;4940;50.900;4.672;2022-10-16T20:08:19;16.90;99.90
9802;DHT22;4940;50.900;4.672;2022-10-16T20:10:50;16.80;99.90
9802;DHT22;4940;50.900;4.672;2022-10-16T20:13:18;16.90;99.90
9802;DHT22;4940;50.900;4.672;2022-10-16T20:15:46;16.80;99.90
9802;DHT22;4940;50.900;4.672;2022-10-16T20:18:14;16.90;99.90
9802;DHT22;4940;50.900;4.672;2022-10-16T20:20:42;16.90;99.90
9802;DHT22;4940;50.900;4.672;2022-10-16T20:23:10;16.90;99.90
9802;DHT22;4940;50.900;4.672;2022-10-16T20:28:10;16.90;99.90
9802;DHT22;4940;50.900;4.672;2022-10-16T20:30:39;16.80;99.90
9802;DHT22;4940;50.900;4.672;2022-10-16T20:33:07;16.80;99.90
9802;DHT22;4940;50.900;4.672;2022-10-16T20:35:35;16.80;99.90
9802;DHT22;4940;50.900;4.672;2022-10-16T20:40:30;16.80;99.90
9802;DHT22;4940;50.900;4.672;2022-10-16T20:42:58;16.70;99.90
9802;DHT22;4940;50.900;4.672;2022-10-16T20:45:25;16.60;99.90
9802;DHT22;4940;50.900;4.672;2022-10-16T20:47:53;16.60;99.90
9802;DHT22;4940;50.900;4.672;2022-10-16T21:00:12;16.40;99.90
9802;DHT22;4940;50.900;4.672;2022-10-16T21:02:40;16.30;99.90
9802;DHT22;4940;50.900;4.672;2022-10-16T21:07:42;16.20;99.90
9802;DHT22;4940;50.900;4.672;2022-10-16T21:10:10;16.20;99.90
9802;DHT22;4940;50.900;4.672;2022-10-16T21:15:05;15.90;99.90
9802;DHT22;4940;50.900;4.672;2022-10-16T21:17:33;16.00;99.90
9802;DHT22;4940;50.900;4.672;2022-10-16T21:22:28;15.70;99.90
9802;DHT22;4940;50.900;4.672;2022-10-16T21:24:56;15.80;99.90
9802;DHT22;4940;50.900;4.672;2022-10-16T21:29:51;15.70;99.90
9802;DHT22;4940;50.900;4.672;2022-10-16T21:34:48;15.70;99.90
9802;DHT22;4940;50.900;4.672;2022-10-16T21:52:01;15.70;99.90
9802;DHT22;4940;50.900;4.672;2022-10-16T22:01:52;15.60;99.90
9802;DHT22;4940;50.900;4.672;2022-10-16T22:09:15;15.50;99.90
9802;DHT22;4940;50.900;4.672;2022-10-16T22:11:43;15.50;99.90
9802;DHT22;4940;50.900;4.672;2022-10-16T22:14:12;15.40;99.90
9802;DHT22;4940;50.900;4.672;2022-10-16T22:19:07;15.40;99.90
9802;DHT22;4940;50.900;4.672;2022-10-16T22:21:37;15.40;99.90
9802;DHT22;4940;50.900;4.672;2022-10-16T22:24:04;15.40;99.90
9802;DHT22;4940;50.900;4.672;2022-10-16T22:26:33;15.40;99.90
9802;DHT22;4940;50.900;4.672;2022-10-16T22:33:56;15.50;99.90
9802;DHT22;4940;50.900;4.672;2022-10-16T22:36:25;15.50;99.90